LPPTLPFR

Guest
Details From LPPT - Lisboa
To LPFR - Faro
Flight Number -
Tags decoded
Created
Modified
Stats Distance 120 nm / 222 km
Max Altitude 0 ft / 0 m
Waypoints 3
Social Downloads 6
Likes 0
Share VATSIM

Download

Looking for another format? Having issues loading an existing format? Contact us
Advertisement - Login to hide

Notes

Requested: LPPT TROIA4S ODEMI LPFR Unmatched points: TROIA4S

Route

LPPT ODEMI LPFR

ID Type Via Altitude Latitude Longitude Leg Dist Tot Dist Heading (true) Name
O LPPT APT - 0 ft / 0 m 38.77856˚ -9.13515˚ - 0 nm - Lisboa
ODEMI FIX - 0 ft / 0 m 37.49750˚ -8.38389˚ 84 nm 84 nm 155° / 155° -
O LPFR APT - 0 ft / 0 m 37.01534˚ -7.97233˚ 35 nm 119 nm 146° / 146° Faro

Altitude Profile

Advertisement - Login to hide

LPPT

Details ICAO LPPT (LIS)
Name Lisboa
Region Portugal
Timezone Europe/Lisbon (UTC+0.0)
Stats Elevation 374 ft / 114 m (AMSL)
Location 38.778559° -9.135146°
Runways 2
Magnetic Variation 2.365° W

METAR

LPPT 110600Z 30011G23KT 270V330 9999 FEW025 SCT035 12/06 Q1001 WS R21

Decode

TAF

TAF LPPT 110500Z 1106/1212 30013KT 9999 SCT018 TEMPO 1106/1115 30018G30KT 5000 SHRAGS BKN015 FEW025CB PROB30 TEMPO 1106/1112 3000 TSRAGS FEW018CB BECMG 1115/1118 34010KT

Decode

Departure Runways

ID Width Length Bearing (true) Bearing (mag) Surface Threshold Offset Overrun Length
03 148 ft / 45 m 12,518 ft / 3,815 m 22.70° 25.07° Asphalt 296 ft / 90 m 0 ft / 0 m
17 148 ft / 45 m 7,922 ft / 2,415 m 168.38° 170.75° Asphalt 0 ft / 0 m 0 ft / 0 m
21 148 ft / 45 m 12,518 ft / 3,815 m 202.72° 205.09° Asphalt 1,969 ft / 600 m 0 ft / 0 m
35 148 ft / 45 m 7,922 ft / 2,415 m 348.38° 350.75° Asphalt 492 ft / 150 m 0 ft / 0 m

LPFR

Details ICAO LPFR (FAO)
Name Faro
Region Portugal
Timezone Europe/Lisbon (UTC+0.0)
Stats Elevation 24 ft / 7 m (AMSL)
Location 37.015336° -7.972327°
Runways 1
Magnetic Variation 1.937° W

METAR

LPFR 110600Z 30021G31KT 9999 -RA FEW022 10/09 Q1003

Decode

TAF

TAF LPFR 110500Z 1106/1206 30017KT 9999 FEW015 SCT030 TEMPO 1106/1117 8000 SHRAGS BKN015 FEW025CB PROB30 TEMPO 1106/1117 30020G32KT BECMG 1117/1119 35013KT FEW020

Decode

Destination Runways

ID Width Length Bearing (true) Bearing (mag) Surface Threshold Offset Overrun Length
10 148 ft / 45 m 8,148 ft / 2,484 m 100.08° 102.02° Asphalt 148 ft / 45 m 0 ft / 0 m
28 148 ft / 45 m 8,148 ft / 2,484 m 280.10° 282.04° Asphalt 148 ft / 45 m 0 ft / 0 m

Approach Navaids

Runway Type Ident Frequency Range Bearing (true) Bearing (mag) Slope Elevation
28 Localiser IIF 109.50 MHz 18 nm / 33 km 280.16° 282.10° - 24 ft / 7 m (AMSL)
28 Glidescope IIF 109.50 MHz 10 nm / 19 km 280.09° 282.02° 3.00° 24 ft / 7 m (AMSL)
28 DME IIF 109.50 MHz 18 nm / 33 km - - - 24 ft / 7 m (AMSL)

Popular Alternatives